sensor_id;sensor_type;location;lat;lon;timestamp;pressure;altitude;pressure_sealevel;temperature;humidity
6567;BME280;3317;43.994;22.878;2023-06-04T00:00:16;101350.34;;;19.16;69.77
6567;BME280;3317;43.994;22.878;2023-06-04T00:02:45;101315.00;;;18.91;68.76
6567;BME280;3317;43.994;22.878;2023-06-04T00:05:12;101337.91;;;18.98;68.39
6567;BME280;3317;43.994;22.878;2023-06-04T00:07:39;101327.75;;;18.98;68.49
6567;BME280;3317;43.994;22.878;2023-06-04T00:10:07;101343.31;;;18.91;68.49
6567;BME280;3317;43.994;22.878;2023-06-04T00:12:34;101342.00;;;18.87;68.87
6567;BME280;3317;43.994;22.878;2023-06-04T00:15:04;101353.88;;;18.72;68.90
6567;BME280;3317;43.994;22.878;2023-06-04T00:17:31;101342.22;;;18.70;69.27
6567;BME280;3317;43.994;22.878;2023-06-04T00:20:13;101332.94;;;18.71;69.46
6567;BME280;3317;43.994;22.878;2023-06-04T00:22:41;101343.94;;;18.71;69.61
6567;BME280;3317;43.994;22.878;2023-06-04T00:25:08;101347.75;;;18.55;70.96
6567;BME280;3317;43.994;22.878;2023-06-04T00:27:45;101342.81;;;18.51;71.27
6567;BME280;3317;43.994;22.878;2023-06-04T00:30:17;101346.09;;;18.39;73.47
6567;BME280;3317;43.994;22.878;2023-06-04T00:32:44;101348.53;;;18.34;74.97
6567;BME280;3317;43.994;22.878;2023-06-04T00:42:41;101351.19;;;18.42;77.82
6567;BME280;3317;43.994;22.878;2023-06-04T00:45:12;101328.75;;;18.39;78.10
6567;BME280;3317;43.994;22.878;2023-06-04T00:51:02;101350.50;;;18.55;80.11
6567;BME280;3317;43.994;22.878;2023-06-04T00:53:39;101361.03;;;18.37;78.27
6567;BME280;3317;43.994;22.878;2023-06-04T00:56:26;101359.41;;;18.27;77.29
6567;BME280;3317;43.994;22.878;2023-06-04T00:58:55;101338.91;;;18.08;75.83
6567;BME280;3317;43.994;22.878;2023-06-04T01:01:50;101357.06;;;18.09;74.48
6567;BME280;3317;43.994;22.878;2023-06-04T01:04:58;101353.06;;;17.97;75.02
6567;BME280;3317;43.994;22.878;2023-06-04T01:10:53;101359.00;;;17.70;75.11
6567;BME280;3317;43.994;22.878;2023-06-04T01:13:21;101367.75;;;17.66;74.86
6567;BME280;3317;43.994;22.878;2023-06-04T01:15:48;101370.94;;;17.54;74.99
6567;BME280;3317;43.994;22.878;2023-06-04T01:18:23;101366.88;;;17.50;75.88
6567;BME280;3317;43.994;22.878;2023-06-04T01:21:27;101371.31;;;17.51;75.38
6567;BME280;3317;43.994;22.878;2023-06-04T01:27:06;101380.53;;;17.35;75.40
6567;BME280;3317;43.994;22.878;2023-06-04T01:29:34;101376.91;;;17.35;75.77
6567;BME280;3317;43.994;22.878;2023-06-04T01:32:02;101382.28;;;17.28;75.68
6567;BME280;3317;43.994;22.878;2023-06-04T01:34:32;101382.78;;;17.31;75.13
6567;BME280;3317;43.994;22.878;2023-06-04T01:37:37;101317.97;;;16.92;75.44
6567;BME280;3317;43.994;22.878;2023-06-04T01:40:09;101374.00;;;17.13;74.95
6567;BME280;3317;43.994;22.878;2023-06-04T01:42:39;101391.81;;;17.09;74.91
6567;BME280;3317;43.994;22.878;2023-06-04T01:45:06;101383.81;;;16.99;74.58
6567;BME280;3317;43.994;22.878;2023-06-04T01:47:35;101396.16;;;16.95;75.28
6567;BME280;3317;43.994;22.878;2023-06-04T01:53:05;101397.78;;;16.81;75.09
6567;BME280;3317;43.994;22.878;2023-06-04T01:55:35;101370.00;;;16.60;75.62
6567;BME280;3317;43.994;22.878;2023-06-04T01:58:06;101400.88;;;16.78;75.62
6567;BME280;3317;43.994;22.878;2023-06-04T02:00:34;101408.78;;;16.72;76.42
6567;BME280;3317;43.994;22.878;2023-06-04T02:03:20;101397.50;;;16.67;76.47
6567;BME280;3317;43.994;22.878;2023-06-04T02:05:47;101414.56;;;16.78;76.30
6567;BME280;3317;43.994;22.878;2023-06-04T02:08:15;101333.56;;;16.28;76.42
6567;BME280;3317;43.994;22.878;2023-06-04T02:10:45;101417.84;;;16.73;76.38
6567;BME280;3317;43.994;22.878;2023-06-04T02:13:15;101411.00;;;16.77;75.84
6567;BME280;3317;43.994;22.878;2023-06-04T02:15:42;101414.16;;;16.89;75.90
6567;BME280;3317;43.994;22.878;2023-06-04T02:18:14;101412.09;;;16.99;75.34
6567;BME280;3317;43.994;22.878;2023-06-04T02:20:43;101417.41;;;16.93;74.49
6567;BME280;3317;43.994;22.878;2023-06-04T02:23:10;101431.41;;;16.98;73.80
6567;BME280;3317;43.994;22.878;2023-06-04T02:25:38;101434.97;;;17.07;73.27
6567;BME280;3317;43.994;22.878;2023-06-04T02:28:05;101418.44;;;16.92;72.40
6567;BME280;3317;43.994;22.878;2023-06-04T02:30:34;101359.13;;;16.52;72.00
6567;BME280;3317;43.994;22.878;2023-06-04T02:33:06;101436.38;;;16.94;71.91
6567;BME280;3317;43.994;22.878;2023-06-04T02:35:36;101433.06;;;16.75;72.34
6567;BME280;3317;43.994;22.878;2023-06-04T02:38:04;101440.53;;;16.82;72.80
6567;BME280;3317;43.994;22.878;2023-06-04T02:40:31;101450.16;;;16.78;72.74
6567;BME280;3317;43.994;22.878;2023-06-04T02:42:59;101466.94;;;16.74;72.80
6567;BME280;3317;43.994;22.878;2023-06-04T02:45:26;101434.09;;;16.66;72.88
6567;BME280;3317;43.994;22.878;2023-06-04T02:47:57;101424.72;;;16.60;73.13
6567;BME280;3317;43.994;22.878;2023-06-04T02:50:28;101461.47;;;16.66;73.46
6567;BME280;3317;43.994;22.878;2023-06-04T02:52:55;101478.09;;;16.56;74.14
6567;BME280;3317;43.994;22.878;2023-06-04T02:55:24;101458.28;;;16.46;74.30
6567;BME280;3317;43.994;22.878;2023-06-04T02:57:51;101473.16;;;16.43;74.63
6567;BME280;3317;43.994;22.878;2023-06-04T03:00:18;101479.72;;;16.34;74.76
6567;BME280;3317;43.994;22.878;2023-06-04T03:06:08;101488.94;;;16.33;75.40
6567;BME280;3317;43.994;22.878;2023-06-04T03:08:37;101479.03;;;16.24;75.66
6567;BME280;3317;43.994;22.878;2023-06-04T03:11:06;101495.75;;;16.29;76.04
6567;BME280;3317;43.994;22.878;2023-06-04T03:13:35;101428.81;;;15.91;75.82
6567;BME280;3317;43.994;22.878;2023-06-04T03:16:25;101507.41;;;16.14;74.43
6567;BME280;3317;43.994;22.878;2023-06-04T03:18:52;101479.38;;;15.87;74.09
6567;BME280;3317;43.994;22.878;2023-06-04T03:21:22;101513.91;;;16.05;73.96
6567;BME280;3317;43.994;22.878;2023-06-04T03:23:50;101519.38;;;15.97;73.95
6567;BME280;3317;43.994;22.878;2023-06-04T03:26:18;101506.69;;;15.87;73.62
6567;BME280;3317;43.994;22.878;2023-06-04T03:32:08;101506.69;;;15.71;75.06
6567;BME280;3317;43.994;22.878;2023-06-04T03:34:50;101517.44;;;15.47;75.91
6567;BME280;3317;43.994;22.878;2023-06-04T03:37:19;101517.41;;;15.56;76.41
6567;BME280;3317;43.994;22.878;2023-06-04T03:39:46;101470.75;;;15.16;77.51
6567;BME280;3317;43.994;22.878;2023-06-04T03:42:13;101527.34;;;15.48;77.82
6567;BME280;3317;43.994;22.878;2023-06-04T03:44:40;101515.22;;;15.59;78.48
6567;BME280;3317;43.994;22.878;2023-06-04T03:47:09;101522.88;;;15.47;78.60
6567;BME280;3317;43.994;22.878;2023-06-04T03:49:37;101523.06;;;15.54;78.83
6567;BME280;3317;43.994;22.878;2023-06-04T03:52:05;101523.06;;;15.54;78.49
6567;BME280;3317;43.994;22.878;2023-06-04T03:54:43;101521.16;;;15.46;79.30
6567;BME280;3317;43.994;22.878;2023-06-04T03:57:10;101526.78;;;15.53;79.89
6567;BME280;3317;43.994;22.878;2023-06-04T03:59:37;101520.97;;;15.40;79.64
6567;BME280;3317;43.994;22.878;2023-06-04T04:02:06;101506.59;;;15.21;79.90
6567;BME280;3317;43.994;22.878;2023-06-04T04:04:35;101530.88;;;15.41;80.39
6567;BME280;3317;43.994;22.878;2023-06-04T04:07:02;101529.84;;;15.33;80.91
6567;BME280;3317;43.994;22.878;2023-06-04T04:09:30;101542.13;;;15.38;81.03
6567;BME280;3317;43.994;22.878;2023-06-04T04:12:01;101522.81;;;15.31;80.99
6567;BME280;3317;43.994;22.878;2023-06-04T04:14:28;101536.31;;;15.32;81.38
6567;BME280;3317;43.994;22.878;2023-06-04T04:16:55;101480.06;;;14.97;81.44
6567;BME280;3317;43.994;22.878;2023-06-04T04:19:22;101543.16;;;15.28;81.14
6567;BME280;3317;43.994;22.878;2023-06-04T04:21:49;101548.59;;;15.28;80.39
6567;BME280;3317;43.994;22.878;2023-06-04T04:24:23;101541.75;;;15.24;79.81
6567;BME280;3317;43.994;22.878;2023-06-04T04:26:50;101560.22;;;15.30;79.31
6567;BME280;3317;43.994;22.878;2023-06-04T04:29:22;101551.34;;;15.28;79.23
6567;BME280;3317;43.994;22.878;2023-06-04T04:31:50;101540.38;;;15.20;79.31
6567;BME280;3317;43.994;22.878;2023-06-04T04:34:18;101553.34;;;15.26;79.13
6567;BME280;3317;43.994;22.878;2023-06-04T04:36:47;101561.88;;;15.23;78.99
6567;BME280;3317;43.994;22.878;2023-06-04T04:39:18;101544.09;;;15.11;79.06
6567;BME280;3317;43.994;22.878;2023-06-04T04:41:46;101548.91;;;15.17;78.85
6567;BME280;3317;43.994;22.878;2023-06-04T04:44:13;101528.38;;;15.04;78.94
6567;BME280;3317;43.994;22.878;2023-06-04T04:46:43;101552.31;;;15.19;78.71
6567;BME280;3317;43.994;22.878;2023-06-04T04:49:10;101552.47;;;15.17;78.36
6567;BME280;3317;43.994;22.878;2023-06-04T04:51:38;101540.72;;;15.17;77.84
6567;BME280;3317;43.994;22.878;2023-06-04T04:54:05;101542.09;;;15.21;77.50
6567;BME280;3317;43.994;22.878;2023-06-04T04:56:34;101491.00;;;14.97;77.64
6567;BME280;3317;43.994;22.878;2023-06-04T04:59:01;101498.97;;;14.90;76.84
6567;BME280;3317;43.994;22.878;2023-06-04T05:01:30;101550.44;;;15.19;76.79
6567;BME280;3317;43.994;22.878;2023-06-04T05:04:01;101548.56;;;15.20;77.17
6567;BME280;3317;43.994;22.878;2023-06-04T05:06:28;101549.78;;;15.26;77.48
6567;BME280;3317;43.994;22.878;2023-06-04T05:08:55;101549.78;;;15.34;77.21
6567;BME280;3317;43.994;22.878;2023-06-04T05:11:23;101542.97;;;15.30;77.04
6567;BME280;3317;43.994;22.878;2023-06-04T05:13:51;101557.84;;;15.35;77.11
6567;BME280;3317;43.994;22.878;2023-06-04T05:16:18;101558.69;;;15.36;76.83
6567;BME280;3317;43.994;22.878;2023-06-04T05:18:46;101560.41;;;15.37;77.06
6567;BME280;3317;43.994;22.878;2023-06-04T05:21:15;101560.22;;;15.39;77.63
6567;BME280;3317;43.994;22.878;2023-06-04T05:23:42;101567.19;;;15.33;77.66
6567;BME280;3317;43.994;22.878;2023-06-04T05:26:13;101553.34;;;15.26;77.64
6567;BME280;3317;43.994;22.878;2023-06-04T05:28:42;101563.09;;;15.29;78.09
6567;BME280;3317;43.994;22.878;2023-06-04T05:31:10;101582.06;;;15.39;78.64
6567;BME280;3317;43.994;22.878;2023-06-04T05:33:38;101507.88;;;15.00;79.06
6567;BME280;3317;43.994;22.878;2023-06-04T05:36:05;101551.16;;;15.30;79.08
6567;BME280;3317;43.994;22.878;2023-06-04T05:38:34;101574.94;;;15.46;79.63
6567;BME280;3317;43.994;22.878;2023-06-04T05:41:01;101565.88;;;15.37;79.76
6567;BME280;3317;43.994;22.878;2023-06-04T05:43:29;101507.72;;;15.02;80.37
6567;BME280;3317;43.994;22.878;2023-06-04T05:45:56;101586.06;;;15.53;80.34
6567;BME280;3317;43.994;22.878;2023-06-04T05:48:23;101585.56;;;15.57;80.60
6567;BME280;3317;43.994;22.878;2023-06-04T05:50:51;101531.50;;;15.26;80.78
6567;BME280;3317;43.994;22.878;2023-06-04T05:53:18;101579.56;;;15.54;80.86
6567;BME280;3317;43.994;22.878;2023-06-04T05:55:47;101587.91;;;15.52;81.07
6567;BME280;3317;43.994;22.878;2023-06-04T05:58:15;101531.69;;;15.25;81.22
6567;BME280;3317;43.994;22.878;2023-06-04T06:00:43;101598.72;;;15.62;81.22
6567;BME280;3317;43.994;22.878;2023-06-04T06:03:11;101604.00;;;15.63;81.62
6567;BME280;3317;43.994;22.878;2023-06-04T06:05:42;101579.41;;;15.55;81.49
6567;BME280;3317;43.994;22.878;2023-06-04T06:08:09;101599.94;;;15.76;81.51
6567;BME280;3317;43.994;22.878;2023-06-04T06:10:38;101605.75;;;15.73;82.24
6567;BME280;3317;43.994;22.878;2023-06-04T06:13:07;101579.75;;;15.60;82.38
6567;BME280;3317;43.994;22.878;2023-06-04T06:15:34;101599.44;;;15.81;82.13
6567;BME280;3317;43.994;22.878;2023-06-04T06:18:05;101601.34;;;15.80;82.91
6567;BME280;3317;43.994;22.878;2023-06-04T06:20:32;101595.34;;;15.76;83.37
6567;BME280;3317;43.994;22.878;2023-06-04T06:23:06;101604.41;;;15.85;83.79
6567;BME280;3317;43.994;22.878;2023-06-04T06:25:34;101601.84;;;15.84;83.79
6567;BME280;3317;43.994;22.878;2023-06-04T06:28:12;101597.91;;;15.78;83.91
6567;BME280;3317;43.994;22.878;2023-06-04T06:30:41;101619.75;;;15.78;83.95
6567;BME280;3317;43.994;22.878;2023-06-04T06:33:08;101605.44;;;15.84;83.77
6567;BME280;3317;43.994;22.878;2023-06-04T06:35:36;101607.81;;;15.87;83.59
6567;BME280;3317;43.994;22.878;2023-06-04T06:38:03;101615.34;;;15.85;82.50
6567;BME280;3317;43.994;22.878;2023-06-04T06:40:30;101623.03;;;15.82;82.23
6567;BME280;3317;43.994;22.878;2023-06-04T06:42:57;101608.81;;;15.78;82.05
6567;BME280;3317;43.994;22.878;2023-06-04T06:45:25;101611.94;;;15.83;81.98
6567;BME280;3317;43.994;22.878;2023-06-04T06:47:52;101615.19;;;15.87;82.19
6567;BME280;3317;43.994;22.878;2023-06-04T06:50:19;101610.63;;;15.96;82.11
6567;BME280;3317;43.994;22.878;2023-06-04T06:52:46;101623.09;;;16.07;81.39
6567;BME280;3317;43.994;22.878;2023-06-04T06:55:13;101621.25;;;16.07;80.97
6567;BME280;3317;43.994;22.878;2023-06-04T06:57:40;101626.53;;;16.17;80.49
6567;BME280;3317;43.994;22.878;2023-06-04T07:00:08;101636.28;;;16.19;80.43
6567;BME280;3317;43.994;22.878;2023-06-04T07:02:37;101639.53;;;16.15;79.89
6567;BME280;3317;43.994;22.878;2023-06-04T07:05:04;101639.00;;;16.11;79.62
6567;BME280;3317;43.994;22.878;2023-06-04T07:07:31;101634.91;;;16.15;79.98
6567;BME280;3317;43.994;22.878;2023-06-04T07:09:58;101642.09;;;16.25;79.71
6567;BME280;3317;43.994;22.878;2023-06-04T07:12:25;101639.00;;;16.11;79.90
6567;BME280;3317;43.994;22.878;2023-06-04T07:14:52;101645.88;;;16.32;79.70
6567;BME280;3317;43.994;22.878;2023-06-04T07:17:20;101647.06;;;16.29;79.80
6567;BME280;3317;43.994;22.878;2023-06-04T07:19:48;101653.88;;;16.33;79.49
6567;BME280;3317;43.994;22.878;2023-06-04T07:22:15;101649.44;;;16.32;79.26
6567;BME280;3317;43.994;22.878;2023-06-04T07:24:42;101652.00;;;16.26;79.77
6567;BME280;3317;43.994;22.878;2023-06-04T07:27:12;101657.31;;;16.27;78.49
6567;BME280;3317;43.994;22.878;2023-06-04T07:29:42;101664.84;;;16.33;78.01
6567;BME280;3317;43.994;22.878;2023-06-04T07:32:09;101671.16;;;16.26;78.22
6567;BME280;3317;43.994;22.878;2023-06-04T07:34:37;101666.38;;;16.28;77.92
6567;BME280;3317;43.994;22.878;2023-06-04T07:37:06;101669.78;;;16.30;76.85
6567;BME280;3317;43.994;22.878;2023-06-04T07:39:35;101667.41;;;16.35;76.32
6567;BME280;3317;43.994;22.878;2023-06-04T07:42:02;101672.00;;;16.35;76.00
6567;BME280;3317;43.994;22.878;2023-06-04T07:44:29;101672.19;;;16.41;75.06
6567;BME280;3317;43.994;22.878;2023-06-04T07:46:56;101677.16;;;16.54;75.43
6567;BME280;3317;43.994;22.878;2023-06-04T07:49:23;101680.94;;;16.53;74.75
6567;BME280;3317;43.994;22.878;2023-06-04T07:51:50;101682.47;;;16.64;74.68
6567;BME280;3317;43.994;22.878;2023-06-04T07:54:18;101692.06;;;16.60;74.15
6567;BME280;3317;43.994;22.878;2023-06-04T07:56:45;101684.19;;;16.49;73.96
6567;BME280;3317;43.994;22.878;2023-06-04T07:59:12;101697.19;;;16.46;73.12
6567;BME280;3317;43.994;22.878;2023-06-04T08:01:39;101685.00;;;16.49;73.40
6567;BME280;3317;43.994;22.878;2023-06-04T08:04:06;101689.97;;;16.54;73.59
6567;BME280;3317;43.994;22.878;2023-06-04T08:06:33;101679.53;;;16.49;74.07
6567;BME280;3317;43.994;22.878;2023-06-04T08:09:00;101704.84;;;16.43;73.29
6567;BME280;3317;43.994;22.878;2023-06-04T08:11:29;101691.69;;;16.38;73.81
6567;BME280;3317;43.994;22.878;2023-06-04T08:13:56;101698.03;;;16.39;73.58
6567;BME280;3317;43.994;22.878;2023-06-04T08:16:24;101700.91;;;16.29;73.79
6567;BME280;3317;43.994;22.878;2023-06-04T08:18:51;101703.69;;;16.45;73.90
6567;BME280;3317;43.994;22.878;2023-06-04T08:21:25;101705.38;;;16.55;73.82
6567;BME280;3317;43.994;22.878;2023-06-04T08:23:52;101714.44;;;16.47;73.31
6567;BME280;3317;43.994;22.878;2023-06-04T08:26:19;101714.59;;;16.54;73.37
6567;BME280;3317;43.994;22.878;2023-06-04T08:28:49;101719.75;;;16.49;72.86
6567;BME280;3317;43.994;22.878;2023-06-04T08:31:16;101727.94;;;16.49;72.88
6567;BME280;3317;43.994;22.878;2023-06-04T08:33:45;101727.78;;;16.42;73.05
6567;BME280;3317;43.994;22.878;2023-06-04T08:36:13;101731.34;;;16.34;73.07
6567;BME280;3317;43.994;22.878;2023-06-04T08:38:40;101733.06;;;16.35;73.50
6567;BME280;3317;43.994;22.878;2023-06-04T08:41:12;101735.47;;;16.38;73.50
6567;BME280;3317;43.994;22.878;2023-06-04T08:43:40;101734.78;;;16.36;73.84
6567;BME280;3317;43.994;22.878;2023-06-04T08:46:11;101736.31;;;16.39;74.00
6567;BME280;3317;43.994;22.878;2023-06-04T08:48:38;101731.84;;;16.38;74.24
6567;BME280;3317;43.994;22.878;2023-06-04T08:51:07;101740.94;;;16.46;74.75
6567;BME280;3317;43.994;22.878;2023-06-04T08:53:35;101750.50;;;16.42;74.96
6567;BME280;3317;43.994;22.878;2023-06-04T08:56:03;101737.13;;;16.31;74.40
6567;BME280;3317;43.994;22.878;2023-06-04T08:58:31;101742.41;;;16.16;74.38
6567;BME280;3317;43.994;22.878;2023-06-04T09:01:00;101738.50;;;16.18;73.64
6567;BME280;3317;43.994;22.878;2023-06-04T09:03:29;101730.97;;;16.21;72.51
6567;BME280;3317;43.994;22.878;2023-06-04T09:05:58;101740.06;;;16.38;71.57
6567;BME280;3317;43.994;22.878;2023-06-04T09:08:27;101747.94;;;16.41;70.83
6567;BME280;3317;43.994;22.878;2023-06-04T09:10:57;101743.84;;;16.45;71.03
6567;BME280;3317;43.994;22.878;2023-06-04T09:13:28;101734.25;;;16.32;71.50
6567;BME280;3317;43.994;22.878;2023-06-04T09:16:00;101743.66;;;16.38;73.00
6567;BME280;3317;43.994;22.878;2023-06-04T09:18:31;101743.97;;;16.27;74.40
6567;BME280;3317;43.994;22.878;2023-06-04T09:21:04;101744.53;;;16.39;75.32
6567;BME280;3317;43.994;22.878;2023-06-04T09:23:31;101730.97;;;16.29;74.96
6567;BME280;3317;43.994;22.878;2023-06-04T09:26:06;101738.84;;;16.24;73.87
6567;BME280;3317;43.994;22.878;2023-06-04T09:28:34;101753.16;;;16.17;72.51
6567;BME280;3317;43.994;22.878;2023-06-04T09:31:01;101765.50;;;16.22;71.98
6567;BME280;3317;43.994;22.878;2023-06-04T09:33:30;101739.53;;;16.26;72.50
6567;BME280;3317;43.994;22.878;2023-06-04T09:35:57;101747.44;;;16.45;72.24
6567;BME280;3317;43.994;22.878;2023-06-04T09:38:33;101686.97;;;15.97;71.57
6567;BME280;3317;43.994;22.878;2023-06-04T09:41:00;101760.06;;;16.38;71.26
6567;BME280;3317;43.994;22.878;2023-06-04T09:43:30;101755.28;;;16.40;71.16
6567;BME280;3317;43.994;22.878;2023-06-04T09:46:08;101761.44;;;16.42;71.09
6567;BME280;3317;43.994;22.878;2023-06-04T09:48:37;101745.72;;;16.53;71.52
6567;BME280;3317;43.994;22.878;2023-06-04T09:51:09;101748.84;;;16.58;72.89
6567;BME280;3317;43.994;22.878;2023-06-04T09:53:37;101751.75;;;16.73;72.89
6567;BME280;3317;43.994;22.878;2023-06-04T09:56:05;101742.34;;;16.84;72.75
6567;BME280;3317;43.994;22.878;2023-06-04T09:58:34;101749.72;;;17.00;71.75
6567;BME280;3317;43.994;22.878;2023-06-04T10:01:04;101756.91;;;17.09;72.57
6567;BME280;3317;43.994;22.878;2023-06-04T10:03:32;101752.97;;;17.03;70.89
6567;BME280;3317;43.994;22.878;2023-06-04T10:06:03;101713.75;;;16.86;69.71
6567;BME280;3317;43.994;22.878;2023-06-04T10:08:32;101754.66;;;16.88;70.63
6567;BME280;3317;43.994;22.878;2023-06-04T10:11:00;101758.09;;;17.07;70.42
6567;BME280;3317;43.994;22.878;2023-06-04T10:13:29;101761.50;;;17.09;67.41
6567;BME280;3317;43.994;22.878;2023-06-04T10:15:57;101767.00;;;17.09;65.17
6567;BME280;3317;43.994;22.878;2023-06-04T10:18:27;101696.50;;;16.78;64.90
6567;BME280;3317;43.994;22.878;2023-06-04T10:20:55;101754.50;;;17.31;65.13
6567;BME280;3317;43.994;22.878;2023-06-04T10:23:24;101762.88;;;17.38;63.88
6567;BME280;3317;43.994;22.878;2023-06-04T10:25:51;101760.97;;;17.47;63.69
6567;BME280;3317;43.994;22.878;2023-06-04T10:28:20;101751.56;;;17.41;64.03
6567;BME280;3317;43.994;22.878;2023-06-04T10:30:47;101767.16;;;17.24;63.98
6567;BME280;3317;43.994;22.878;2023-06-04T10:33:17;101771.75;;;17.40;64.30
6567;BME280;3317;43.994;22.878;2023-06-04T10:35:46;101751.06;;;17.29;64.90
6567;BME280;3317;43.994;22.878;2023-06-04T10:38:14;101738.41;;;17.11;64.76
6567;BME280;3317;43.994;22.878;2023-06-04T10:40:43;101772.63;;;17.24;65.29
6567;BME280;3317;43.994;22.878;2023-06-04T10:43:12;101763.59;;;17.15;66.03
6567;BME280;3317;43.994;22.878;2023-06-04T10:45:39;101755.00;;;17.26;65.79
6567;BME280;3317;43.994;22.878;2023-06-04T10:48:08;101766.81;;;17.43;66.52
6567;BME280;3317;43.994;22.878;2023-06-04T10:50:48;101760.09;;;17.46;66.60
6567;BME280;3317;43.994;22.878;2023-06-04T10:53:16;101767.31;;;17.39;66.44
6567;BME280;3317;43.994;22.878;2023-06-04T10:55:45;101747.31;;;17.30;65.85
6567;BME280;3317;43.994;22.878;2023-06-04T10:58:13;101771.56;;;17.41;65.32
6567;BME280;3317;43.994;22.878;2023-06-04T11:00:41;101768.47;;;17.53;65.10
6567;BME280;3317;43.994;22.878;2023-06-04T11:03:10;101758.06;;;17.40;64.58
6567;BME280;3317;43.994;22.878;2023-06-04T11:05:39;101769.88;;;17.40;64.66
6567;BME280;3317;43.994;22.878;2023-06-04T11:08:07;101763.19;;;17.35;64.73
6567;BME280;3317;43.994;22.878;2023-06-04T11:10:36;101755.53;;;17.22;64.88
6567;BME280;3317;43.994;22.878;2023-06-04T11:13:05;101764.94;;;17.27;65.39
6567;BME280;3317;43.994;22.878;2023-06-04T11:15:40;101690.34;;;16.84;65.36
6567;BME280;3317;43.994;22.878;2023-06-04T11:18:08;101765.09;;;17.42;65.21
6567;BME280;3317;43.994;22.878;2023-06-04T11:20:36;101770.19;;;17.54;65.67
6567;BME280;3317;43.994;22.878;2023-06-04T11:23:03;101748.63;;;17.51;65.18
6567;BME280;3317;43.994;22.878;2023-06-04T11:25:31;101763.50;;;17.56;65.39
6567;BME280;3317;43.994;22.878;2023-06-04T11:28:00;101735.94;;;17.50;65.55
6567;BME280;3317;43.994;22.878;2023-06-04T11:30:28;101752.19;;;17.59;65.64
6567;BME280;3317;43.994;22.878;2023-06-04T11:33:02;101755.91;;;17.75;65.63
6567;BME280;3317;43.994;22.878;2023-06-04T11:35:31;101762.50;;;17.49;65.75
6567;BME280;3317;43.994;22.878;2023-06-04T11:37:58;101767.69;;;17.36;66.23
6567;BME280;3317;43.994;22.878;2023-06-04T11:40:26;101757.06;;;17.24;66.81
6567;BME280;3317;43.994;22.878;2023-06-04T11:42:53;101764.25;;;17.25;67.50
6567;BME280;3317;43.994;22.878;2023-06-04T11:45:22;101756.53;;;17.37;67.71
6567;BME280;3317;43.994;22.878;2023-06-04T11:47:52;101763.34;;;17.50;67.80
6567;BME280;3317;43.994;22.878;2023-06-04T11:50:19;101763.53;;;17.48;68.42
6567;BME280;3317;43.994;22.878;2023-06-04T11:52:47;101765.41;;;17.56;68.11
6567;BME280;3317;43.994;22.878;2023-06-04T11:55:15;101749.84;;;17.31;67.28
6567;BME280;3317;43.994;22.878;2023-06-04T11:57:48;101761.63;;;17.57;67.43
6567;BME280;3317;43.994;22.878;2023-06-04T12:00:16;101755.25;;;17.65;68.30
6567;BME280;3317;43.994;22.878;2023-06-04T12:02:50;101748.75;;;17.66;68.30
6567;BME280;3317;43.994;22.878;2023-06-04T12:05:19;101728.91;;;17.55;68.29
6567;BME280;3317;43.994;22.878;2023-06-04T12:07:49;101720.84;;;17.62;67.85
6567;BME280;3317;43.994;22.878;2023-06-04T12:10:17;101747.50;;;17.77;68.04
6567;BME280;3317;43.994;22.878;2023-06-04T12:12:44;101743.41;;;17.72;67.42
6567;BME280;3317;43.994;22.878;2023-06-04T12:15:12;101748.41;;;17.60;67.63
6567;BME280;3317;43.994;22.878;2023-06-04T12:17:50;101749.78;;;17.65;67.92
6567;BME280;3317;43.994;22.878;2023-06-04T12:20:18;101742.88;;;17.77;67.51
6567;BME280;3317;43.994;22.878;2023-06-04T12:22:45;101745.66;;;17.60;66.04
6567;BME280;3317;43.994;22.878;2023-06-04T12:25:23;101742.97;;;17.52;66.95
6567;BME280;3317;43.994;22.878;2023-06-04T12:27:52;101737.81;;;17.57;66.87
6567;BME280;3317;43.994;22.878;2023-06-04T12:30:19;101747.13;;;17.80;66.87
6567;BME280;3317;43.994;22.878;2023-06-04T12:32:46;101746.09;;;17.89;66.93
6567;BME280;3317;43.994;22.878;2023-06-04T12:35:15;101748.81;;;17.89;66.10
6567;BME280;3317;43.994;22.878;2023-06-04T12:37:42;101758.25;;;18.03;65.75
6567;BME280;3317;43.994;22.878;2023-06-04T12:40:10;101732.81;;;18.09;65.40
6567;BME280;3317;43.994;22.878;2023-06-04T12:42:37;101659.97;;;17.75;65.13
6567;BME280;3317;43.994;22.878;2023-06-04T12:45:05;101742.38;;;18.45;65.11
6567;BME280;3317;43.994;22.878;2023-06-04T12:47:32;101736.22;;;18.43;65.06
6567;BME280;3317;43.994;22.878;2023-06-04T12:50:01;101744.09;;;18.46;64.45
6567;BME280;3317;43.994;22.878;2023-06-04T12:52:30;101742.06;;;18.17;64.41
6567;BME280;3317;43.994;22.878;2023-06-04T12:54:56;101738.34;;;18.01;64.78
6567;BME280;3317;43.994;22.878;2023-06-04T12:57:23;101740.81;;;18.19;64.41
6567;BME280;3317;43.994;22.878;2023-06-04T12:59:50;101729.25;;;18.09;64.75
6567;BME280;3317;43.994;22.878;2023-06-04T13:02:17;101731.50;;;18.28;64.31
6567;BME280;3317;43.994;22.878;2023-06-04T13:04:44;101719.47;;;18.06;64.66
6567;BME280;3317;43.994;22.878;2023-06-04T13:07:11;101730.59;;;18.36;64.44
6567;BME280;3317;43.994;22.878;2023-06-04T13:09:40;101722.94;;;18.55;64.36
6567;BME280;3317;43.994;22.878;2023-06-04T13:12:08;101703.06;;;18.53;64.12
6567;BME280;3317;43.994;22.878;2023-06-04T13:14:35;101674.13;;;18.42;63.21
6567;BME280;3317;43.994;22.878;2023-06-04T13:17:02;101722.75;;;18.80;63.48
6567;BME280;3317;43.994;22.878;2023-06-04T13:19:29;101720.13;;;18.86;63.77
6567;BME280;3317;43.994;22.878;2023-06-04T13:21:56;101702.88;;;18.93;63.48
6567;BME280;3317;43.994;22.878;2023-06-04T13:24:23;101716.41;;;19.18;63.02
6567;BME280;3317;43.994;22.878;2023-06-04T13:26:52;101716.59;;;19.31;62.59
6567;BME280;3317;43.994;22.878;2023-06-04T13:29:20;101711.31;;;19.45;62.08
6567;BME280;3317;43.994;22.878;2023-06-04T13:31:48;101709.13;;;19.55;61.52
6567;BME280;3317;43.994;22.878;2023-06-04T13:34:15;101709.69;;;19.35;60.93
6567;BME280;3317;43.994;22.878;2023-06-04T13:36:42;101714.13;;;19.21;61.07